Time;durP1;ratioP1;P1;durP2;ratioP2;P2;SDS_P1;SDS_P2;PMS_P1;PMS_P2;Temp;Humidity;BMP_temperature;BMP_pressure;BME280_temperature;BME280_humidity;BME280_pressure;Samples;Min_cycle;Max_cycle;Signal;HPM_P1;HPM_P2
2023/01/21 16:06:25;;;;;;;52.50;20.67;;;-1.40;99.90;;;;;;7597337;19;20403;-71
2023/01/21 16:09:10;;;;;;;49.05;20.05;;;-1.30;99.90;;;;;;7591119;19;20017;-72
2023/01/21 16:11:51;;;;;;;44.55;19.15;;;-1.30;99.90;;;;;;7582604;19;20147;-72
2023/01/21 16:14:30;;;;;;;47.17;20.40;;;-1.20;99.90;;;;;;7579879;19;20507;-72
2023/01/21 16:17:18;;;;;;;41.53;18.67;;;-1.20;99.90;;;;;;7550955;19;20012;-71
2023/01/21 16:19:54;;;;;;;44.55;19.52;;;-1.10;99.90;;;;;;7568757;19;20024;-72
2023/01/21 16:22:29;;;;;;;39.38;18.83;;;-1.10;99.90;;;;;;7594258;19;20064;-72
2023/01/21 16:25:10;;;;;;;35.80;16.30;;;-1.00;99.90;;;;;;7576543;19;20697;-71
2023/01/21 16:27:48;;;;;;;39.47;17.77;;;-1.00;99.90;;;;;;7592664;19;21642;-71
2023/01/21 16:30:29;;;;;;;39.75;16.70;;;-1.00;99.90;;;;;;7599985;19;20819;-71
2023/01/21 16:33:12;;;;;;;40.30;17.30;;;-1.00;99.90;;;;;;7592311;19;20018;-71
2023/01/21 16:35:52;;;;;;;38.85;16.35;;;-0.90;99.90;;;;;;7596350;19;20006;-72
2023/01/21 16:38:27;;;;;;;34.90;17.17;;;-0.90;99.90;;;;;;7588578;19;20010;-71
2023/01/21 16:41:05;;;;;;;40.17;17.02;;;-0.90;99.90;;;;;;7564883;19;23837;-71
2023/01/21 16:44:00;;;;;;;34.03;15.27;;;-0.90;99.90;;;;;;7580400;19;25425;-70
2023/01/21 16:46:39;;;;;;;37.58;16.30;;;-0.80;99.90;;;;;;7586664;19;27501;-71
2023/01/21 16:49:15;;;;;;;36.15;15.52;;;-0.80;99.90;;;;;;7535837;19;23348;-72
2023/01/21 16:51:55;;;;;;;36.80;16.38;;;-0.80;99.90;;;;;;7579403;19;22812;-71
2023/01/21 16:54:29;;;;;;;35.67;15.02;;;-0.80;99.90;;;;;;7587212;19;23411;-71
2023/01/21 16:57:14;;;;;;;36.72;16.77;;;-0.80;99.90;;;;;;7561380;19;23142;-72
2023/01/21 16:59:51;;;;;;;37.78;17.40;;;-0.90;99.90;;;;;;7586707;19;22215;-71
2023/01/21 17:02:27;;;;;;;41.15;15.98;;;-1.00;99.90;;;;;;7579412;19;23521;-71
2023/01/21 17:05:03;;;;;;;39.92;16.02;;;-0.90;99.90;;;;;;7577270;19;22792;-72
2023/01/21 17:07:46;;;;;;;39.90;17.05;;;-0.90;99.90;;;;;;7585379;19;27260;-71
2023/01/21 17:10:36;;;;;;;39.88;17.63;;;-0.80;99.90;;;;;;7586018;19;22988;-71
2023/01/21 17:13:14;;;;;;;40.00;16.33;;;-0.90;99.90;;;;;;7580503;19;23048;-71
2023/01/21 17:15:57;;;;;;;36.92;16.83;;;-0.90;99.90;;;;;;7553329;19;22856;-71
2023/01/21 17:18:35;;;;;;;38.90;16.50;;;-0.90;99.90;;;;;;7567009;19;23091;-71
2023/01/21 17:21:19;;;;;;;40.28;16.88;;;-0.90;99.90;;;;;;7556406;19;22160;-73
2023/01/21 17:23:53;;;;;;;;;;;-0.90;99.90;;;;;;7558523;19;21970;-72
2023/01/21 17:26:30;;;;;;;42.63;17.65;;;-0.90;99.90;;;;;;7555947;19;22680;-71
2023/01/21 17:29:19;;;;;;;43.50;19.25;;;-0.90;99.90;;;;;;7560781;19;22605;-71
2023/01/21 17:32:00;;;;;;;44.00;20.52;;;-0.90;99.90;;;;;;7564908;19;20468;-72
2023/01/21 17:34:35;;;;;;;38.05;16.95;;;-0.90;99.90;;;;;;7560406;19;22951;-72
2023/01/21 17:37:38;;;;;;;38.45;17.77;;;-0.90;99.90;;;;;;7561995;19;22840;-72
2023/01/21 17:40:29;;;;;;;35.58;16.30;;;-1.00;99.90;;;;;;7526138;19;22820;-72
2023/01/21 17:43:18;;;;;;;36.35;15.10;;;-0.90;99.90;;;;;;7559159;19;22641;-72
2023/01/21 17:45:53;;;;;;;36.80;15.27;;;-0.90;99.90;;;;;;7547721;19;20606;-71
2023/01/21 17:48:31;;;;;;;34.95;14.80;;;-1.00;99.90;;;;;;7563687;19;20010;-72
2023/01/21 17:51:12;;;;;;;35.25;15.85;;;-1.00;99.90;;;;;;7526621;19;20059;-72
2023/01/21 17:54:04;;;;;;;37.40;15.88;;;-1.10;99.90;;;;;;7570551;19;20018;-71
2023/01/21 17:56:39;;;;;;;37.83;16.42;;;-1.00;99.90;;;;;;7563920;19;20082;-71
2023/01/21 17:59:33;;;;;;;42.42;16.77;;;-1.00;99.90;;;;;;7580442;19;21178;-71
2023/01/21 18:02:15;;;;;;;38.70;16.05;;;-1.40;99.90;;;;;;7567939;19;20875;-70
2023/01/21 18:04:47;;;;;;;41.88;17.95;;;-1.00;99.90;;;;;;7587168;19;21529;-72
2023/01/21 18:07:23;;;;;;;41.35;17.70;;;-1.00;99.90;;;;;;7596064;19;20672;-73
2023/01/21 18:10:01;;;;;;;37.80;16.02;;;-1.00;99.90;;;;;;7555787;19;20022;-71
2023/01/21 18:12:33;;;;;;;41.90;16.73;;;-1.00;99.90;;;;;;7578886;19;20015;-71
2023/01/21 18:15:06;;;;;;;38.75;17.38;;;-0.90;99.90;;;;;;7544087;19;20015;-72
2023/01/21 18:17:42;;;;;;;40.35;18.75;;;-0.90;99.90;;;;;;7572792;19;20012;-72
2023/01/21 18:20:21;;;;;;;41.08;18.13;;;-1.00;99.90;;;;;;7548985;19;20018;-73
2023/01/21 18:22:55;;;;;;;40.03;17.67;;;-1.00;99.90;;;;;;7587219;19;20018;-69
2023/01/21 18:25:28;;;;;;;40.05;17.05;;;-1.00;99.90;;;;;;7533374;19;20018;-70
2023/01/21 18:28:01;;;;;;;37.50;15.93;;;-1.10;99.90;;;;;;7560222;19;20057;-70
2023/01/21 18:30:33;;;;;;;39.38;17.42;;;-1.20;99.90;;;;;;7585629;19;20022;-72
2023/01/21 18:33:05;;;;;;;37.78;17.02;;;-0.80;99.90;;;;;;7577440;19;20643;-71
2023/01/21 18:35:41;;;;;;;43.38;18.00;;;-0.60;99.90;;;;;;7586700;19;20434;-71
2023/01/21 18:38:20;;;;;;;45.50;17.83;;;-0.70;99.90;;;;;;7576807;19;20520;-71
2023/01/21 18:40:56;;;;;;;38.78;16.73;;;-1.10;99.90;;;;;;7547171;19;20097;-71
2023/01/21 18:43:28;;;;;;;44.05;18.15;;;-1.10;99.90;;;;;;7575665;19;20153;-71
2023/01/21 18:46:01;;;;;;;40.50;18.17;;;-1.10;99.90;;;;;;7578243;19;20014;-71
2023/01/21 18:48:34;;;;;;;44.75;18.23;;;-1.20;99.90;;;;;;7578445;19;20114;-71
2023/01/21 18:51:08;;;;;;;45.38;18.25;;;-1.20;99.90;;;;;;7584378;19;20052;-71
2023/01/21 18:53:40;;;;;;;40.72;17.75;;;-1.20;99.90;;;;;;7580297;19;20962;-71
2023/01/21 18:56:14;;;;;;;36.22;16.83;;;-1.30;99.90;;;;;;7504737;19;20027;-71
2023/01/21 18:58:47;;;;;;;40.22;18.52;;;-1.00;99.90;;;;;;7560682;19;20014;-71
2023/01/21 19:01:20;;;;;;;39.15;17.40;;;-1.10;99.90;;;;;;7555906;19;20041;-72
2023/01/21 19:03:55;;;;;;;43.67;16.98;;;-1.20;99.90;;;;;;7552126;19;20014;-72
2023/01/21 19:06:27;;;;;;;40.28;18.20;;;-0.80;99.90;;;;;;7556250;19;20019;-71
2023/01/21 19:09:00;;;;;;;41.80;18.00;;;-1.10;99.90;;;;;;7543774;19;20018;-72
2023/01/21 19:11:32;;;;;;;42.67;17.80;;;-1.10;99.90;;;;;;7558510;19;20064;-72
2023/01/21 19:14:04;;;;;;;44.50;20.13;;;-1.10;99.90;;;;;;7536691;19;20810;-72
2023/01/21 19:16:39;;;;;;;47.88;18.60;;;-1.10;99.90;;;;;;7560480;19;20027;-71
2023/01/21 19:19:15;;;;;;;47.63;23.38;;;-1.10;99.90;;;;;;7571372;19;20025;-71
2023/01/21 19:21:47;;;;;;;41.17;18.48;;;-0.90;99.90;;;;;;7565539;19;20015;-71
2023/01/21 19:24:19;;;;;;;50.10;23.23;;;-1.20;99.90;;;;;;7586373;19;20022;-71
2023/01/21 19:26:52;;;;;;;49.67;21.27;;;-1.20;99.90;;;;;;7083936;19;10000091;-71
2023/01/21 19:29:27;;;;;;;47.78;21.48;;;-1.70;99.90;;;;;;7594450;19;20390;-72
2023/01/21 19:31:59;;;;;;;46.28;20.23;;;-1.20;99.90;;;;;;7561505;19;21002;-72
2023/01/21 19:34:31;;;;;;;57.92;27.77;;;-2.00;99.90;;;;;;7518710;19;20032;-72
2023/01/21 19:37:04;;;;;;;60.58;30.23;;;-1.40;99.90;;;;;;7530963;19;20030;-72
2023/01/21 19:39:37;;;;;;;;;;;-1.90;99.90;;;;;;7578807;19;20030;-72
2023/01/21 19:42:14;;;;;;;60.83;29.65;;;-0.30;99.90;;;;;;7527390;19;19930;-69
2023/01/21 19:44:46;;;;;;;49.47;21.98;;;-1.30;99.90;;;;;;7552988;19;20003;-72
2023/01/21 19:47:28;;;;;;;47.42;19.08;;;-1.40;99.90;;;;;;7561361;19;20018;-72
2023/01/21 19:50:02;;;;;;;48.35;23.75;;;-1.30;99.90;;;;;;7562380;19;21812;-71
2023/01/21 19:52:36;;;;;;;48.83;20.90;;;-1.30;99.90;;;;;;7557773;19;20106;-70
2023/01/21 19:55:15;;;;;;;50.45;21.15;;;-1.40;99.90;;;;;;7556226;19;20589;-72
2023/01/21 19:57:55;;;;;;;43.40;19.88;;;-1.50;99.90;;;;;;7578368;19;20025;-71
2023/01/21 20:00:31;;;;;;;45.33;21.33;;;-0.80;99.90;;;;;;7568620;19;20047;-71
2023/01/21 20:03:03;;;;;;;49.10;20.00;;;-1.20;99.90;;;;;;7568742;19;22096;-71
2023/01/21 20:05:36;;;;;;;50.33;19.83;;;-0.60;99.90;;;;;;7579052;19;20098;-71
2023/01/21 20:08:14;;;;;;;59.22;22.90;;;-1.50;99.90;;;;;;7577788;19;20016;-72
2023/01/21 20:10:46;;;;;;;50.33;20.98;;;-1.50;99.90;;;;;;7575573;19;20017;-73
2023/01/21 20:13:18;;;;;;;44.33;18.05;;;-1.30;99.90;;;;;;7580399;19;20022;-71
2023/01/21 20:15:51;;;;;;;47.33;18.80;;;-1.60;99.90;;;;;;7585497;19;20637;-73
2023/01/21 20:18:26;;;;;;;49.97;19.77;;;-1.10;99.90;;;;;;7557990;19;20015;-73
2023/01/21 20:20:58;;;;;;;42.95;20.15;;;-1.20;99.90;;;;;;7566421;19;20383;-71
2023/01/21 20:23:32;;;;;;;49.88;20.88;;;-1.30;99.90;;;;;;7572023;19;20014;-71
2023/01/21 20:26:06;;;;;;;;;;;-1.20;99.90;;;;;;7588382;19;20014;-71
2023/01/21 20:28:43;;;;;;;52.60;19.40;;;-1.50;99.90;;;;;;7569705;19;19991;-72
2023/01/21 20:31:16;;;;;;;46.47;18.23;;;-0.40;99.90;;;;;;7573330;19;20875;-73
2023/01/21 20:33:48;;;;;;;46.22;18.83;;;-1.20;99.90;;;;;;7582718;19;20758;-72
2023/01/21 20:36:23;;;;;;;47.17;18.65;;;-1.20;99.90;;;;;;7570746;19;20602;-72
2023/01/21 20:38:55;;;;;;;46.88;19.25;;;-0.50;99.90;;;;;;7580709;19;20098;-73
2023/01/21 20:41:27;;;;;;;46.70;19.25;;;-1.20;99.90;;;;;;7562737;19;20026;-73
2023/01/21 20:44:02;;;;;;;40.72;18.25;;;-1.20;99.90;;;;;;7588855;19;20371;-74
2023/01/21 20:46:34;;;;;;;43.95;19.95;;;-1.20;99.90;;;;;;7581555;19;20059;-72
2023/01/21 20:49:09;;;;;;;43.55;18.20;;;-1.20;99.90;;;;;;7555952;19;20086;-72
2023/01/21 20:51:42;;;;;;;47.90;20.70;;;-1.20;99.90;;;;;;7565917;19;20018;-73
